createdAt,value
2018-09-20T00:01:05.583Z,99.90
2018-09-20T00:03:33.860Z,99.90
2018-09-20T00:06:02.146Z,99.90
2018-09-20T00:08:30.433Z,99.90
2018-09-20T00:10:58.723Z,99.90
2018-09-20T00:13:27.020Z,99.90
2018-09-20T00:15:55.333Z,99.90
2018-09-20T00:18:23.631Z,99.90
2018-09-20T00:20:51.929Z,99.90
2018-09-20T00:23:20.256Z,99.90
2018-09-20T00:25:48.555Z,99.90
2018-09-20T00:28:16.906Z,99.90
2018-09-20T00:30:45.207Z,99.90
2018-09-20T00:33:13.496Z,99.90
2018-09-20T00:35:41.777Z,99.90
2018-09-20T00:38:10.094Z,99.90
2018-09-20T00:40:38.391Z,99.90
2018-09-20T00:43:06.660Z,99.90
2018-09-20T00:45:34.932Z,99.90
2018-09-20T00:48:03.705Z,99.90
2018-09-20T00:50:32.189Z,99.90
2018-09-20T00:53:00.978Z,99.90
2018-09-20T00:55:29.924Z,99.90
2018-09-20T00:57:58.488Z,99.90
2018-09-20T01:00:27.134Z,99.90
2018-09-20T01:02:55.834Z,99.90
2018-09-20T01:05:24.583Z,99.90
2018-09-20T01:07:53.342Z,99.90
2018-09-20T01:10:21.891Z,99.90
2018-09-20T01:12:50.690Z,99.90
2018-09-20T01:15:19.285Z,99.90
2018-09-20T01:17:47.886Z,99.90
2018-09-20T01:20:16.464Z,99.90
2018-09-20T01:22:45.031Z,99.90
2018-09-20T01:25:13.703Z,99.90
2018-09-20T01:27:42.640Z,99.90
2018-09-20T01:30:11.593Z,99.90
2018-09-20T01:32:40.115Z,99.90
2018-09-20T01:35:08.707Z,99.90
2018-09-20T01:37:37.499Z,99.90
2018-09-20T01:40:05.952Z,99.90
2018-09-20T01:42:34.574Z,99.90
2018-09-20T01:45:03.252Z,99.90
2018-09-20T01:47:31.986Z,99.90
2018-09-20T01:50:00.506Z,99.90
2018-09-20T01:52:29.148Z,99.90
2018-09-20T01:54:57.651Z,99.90
2018-09-20T01:57:26.172Z,99.90
2018-09-20T01:59:54.953Z,99.90
2018-09-20T02:02:23.411Z,99.90
2018-09-20T02:04:52.009Z,99.90
2018-09-20T02:07:20.582Z,99.90
2018-09-20T02:09:49.264Z,99.90
2018-09-20T02:12:17.880Z,99.90
2018-09-20T02:14:46.329Z,99.90
2018-09-20T02:17:14.974Z,99.90
2018-09-20T02:19:43.520Z,99.90
2018-09-20T02:22:12.508Z,99.90
2018-09-20T02:24:41.433Z,99.90
2018-09-20T02:27:10.095Z,99.90
2018-09-20T02:29:38.710Z,99.90
2018-09-20T02:32:07.741Z,99.90
2018-09-20T02:34:36.311Z,99.90
2018-09-20T02:37:05.025Z,99.90
2018-09-20T02:39:33.567Z,99.90
2018-09-20T02:42:02.180Z,99.90
2018-09-20T02:44:30.699Z,99.90
2018-09-20T02:46:59.357Z,99.90
2018-09-20T02:49:27.943Z,99.90
2018-09-20T02:51:56.531Z,99.90
2018-09-20T02:54:25.153Z,99.90
2018-09-20T02:56:53.820Z,99.90
2018-09-20T02:59:22.508Z,99.90
2018-09-20T03:01:51.254Z,99.90
2018-09-20T03:04:19.836Z,99.90
2018-09-20T03:06:48.496Z,99.90
2018-09-20T03:09:17.432Z,99.90
2018-09-20T03:11:46.231Z,99.90
2018-09-20T03:14:14.828Z,99.90
2018-09-20T03:16:43.679Z,99.90
2018-09-20T03:19:12.261Z,99.90
2018-09-20T03:21:40.949Z,99.90
2018-09-20T03:24:09.681Z,99.90
2018-09-20T03:26:38.458Z,99.90
2018-09-20T03:29:07.162Z,99.90
2018-09-20T03:31:35.948Z,99.90
2018-09-20T03:34:04.541Z,99.90
2018-09-20T03:36:33.372Z,99.90
2018-09-20T03:39:01.946Z,99.90
2018-09-20T03:41:30.601Z,99.90
2018-09-20T03:43:59.407Z,99.90
2018-09-20T03:46:27.634Z,99.90
2018-09-20T03:48:55.892Z,99.90
2018-09-20T03:51:24.260Z,99.90
2018-09-20T03:53:52.490Z,99.90
2018-09-20T03:56:20.746Z,99.90
2018-09-20T03:58:49.013Z,99.90
2018-09-20T04:01:17.255Z,99.90
2018-09-20T04:03:45.525Z,99.90
2018-09-20T04:06:13.854Z,99.90
2018-09-20T04:08:42.132Z,99.90
2018-09-20T04:11:10.400Z,99.90
2018-09-20T04:13:38.689Z,99.90
2018-09-20T04:16:07.134Z,99.90
2018-09-20T04:18:35.686Z,99.90
2018-09-20T04:21:04.033Z,99.90
2018-09-20T04:23:32.292Z,99.90
2018-09-20T04:26:00.552Z,99.90
2018-09-20T04:28:29.199Z,99.90
2018-09-20T04:30:57.499Z,99.90
2018-09-20T04:33:25.806Z,99.90
2018-09-20T04:35:54.071Z,99.90
2018-09-20T04:38:22.336Z,99.90
2018-09-20T04:40:50.611Z,99.90
2018-09-20T04:43:18.866Z,99.90
2018-09-20T04:45:47.126Z,99.90
2018-09-20T04:48:15.390Z,99.90
2018-09-20T04:50:43.642Z,99.90
2018-09-20T04:53:11.939Z,99.90
2018-09-20T04:55:40.204Z,99.90
2018-09-20T04:58:08.476Z,99.90
2018-09-20T05:00:36.770Z,99.90
2018-09-20T05:03:05.131Z,99.90
2018-09-20T05:05:33.496Z,99.90
2018-09-20T05:08:01.738Z,99.90
2018-09-20T05:10:30.016Z,99.90
2018-09-20T05:12:58.368Z,99.90
2018-09-20T05:15:26.644Z,99.90
2018-09-20T05:17:54.941Z,99.90
2018-09-20T05:20:23.467Z,99.90
2018-09-20T05:22:51.662Z,99.90
2018-09-20T05:25:20.184Z,99.90
2018-09-20T05:27:48.438Z,99.90
2018-09-20T05:30:16.720Z,99.90
2018-09-20T05:32:44.975Z,99.90
2018-09-20T05:35:13.250Z,99.90
2018-09-20T05:37:41.479Z,99.90
2018-09-20T05:40:09.797Z,99.90
2018-09-20T05:42:38.051Z,99.90
2018-09-20T05:45:06.387Z,99.90
2018-09-20T05:47:34.712Z,99.90
2018-09-20T05:50:03.019Z,99.90
2018-09-20T05:52:31.392Z,99.90
2018-09-20T05:54:59.711Z,99.90
2018-09-20T05:57:27.964Z,99.90
2018-09-20T05:59:56.240Z,99.90
2018-09-20T06:02:24.857Z,99.90
2018-09-20T06:04:53.184Z,99.90
2018-09-20T06:07:21.445Z,99.90
2018-09-20T06:09:49.710Z,99.90
2018-09-20T06:12:18.096Z,99.90
2018-09-20T06:14:46.380Z,99.90
2018-09-20T06:17:14.742Z,99.90
2018-09-20T06:19:43.050Z,99.90
2018-09-20T06:22:11.438Z,99.90
2018-09-20T06:24:39.717Z,99.90
2018-09-20T06:27:08.569Z,99.90
2018-09-20T06:29:36.847Z,99.90
2018-09-20T06:32:05.251Z,99.90
2018-09-20T06:34:33.515Z,99.90
2018-09-20T06:37:01.820Z,99.90
2018-09-20T06:39:30.225Z,99.90
2018-09-20T06:41:58.548Z,99.90
2018-09-20T06:44:26.920Z,99.90
2018-09-20T06:46:55.200Z,99.90
2018-09-20T06:49:23.503Z,99.90
2018-09-20T06:51:51.822Z,99.90
2018-09-20T06:54:20.070Z,99.90
2018-09-20T06:56:48.311Z,99.90
2018-09-20T06:59:16.575Z,99.90
2018-09-20T07:01:44.840Z,99.90
2018-09-20T07:04:13.099Z,99.90
2018-09-20T07:06:41.340Z,99.90
2018-09-20T07:09:15.182Z,99.90
2018-09-20T07:11:43.420Z,99.90
2018-09-20T07:14:11.697Z,99.90
2018-09-20T07:16:39.902Z,99.90
2018-09-20T07:19:08.173Z,99.90
2018-09-20T07:21:36.482Z,99.90
2018-09-20T07:24:04.775Z,99.90
2018-09-20T07:26:33.019Z,99.90
2018-09-20T07:29:01.271Z,99.90
2018-09-20T07:31:29.582Z,99.90
2018-09-20T07:33:57.852Z,99.90
2018-09-20T07:36:26.148Z,99.90
2018-09-20T07:38:54.410Z,99.90
2018-09-20T07:41:22.679Z,99.90
2018-09-20T07:43:50.925Z,99.90
2018-09-20T07:46:19.205Z,99.90
2018-09-20T07:48:47.529Z,99.90
2018-09-20T07:51:15.829Z,99.90
2018-09-20T07:53:44.174Z,99.90
2018-09-20T07:56:12.364Z,99.90
2018-09-20T07:58:40.631Z,99.90
2018-09-20T08:01:08.946Z,99.90
2018-09-20T08:03:37.203Z,99.90
2018-09-20T08:06:05.471Z,99.90
2018-09-20T08:08:33.729Z,99.90
2018-09-20T08:11:01.996Z,99.90
2018-09-20T08:13:30.248Z,99.90
2018-09-20T08:15:58.521Z,99.90
2018-09-20T08:18:26.799Z,99.90
2018-09-20T08:20:55.071Z,99.90
2018-09-20T08:23:23.319Z,99.90
2018-09-20T08:25:51.571Z,99.90
2018-09-20T08:28:19.947Z,99.90
2018-09-20T08:30:48.248Z,99.90
2018-09-20T08:33:16.511Z,99.90
2018-09-20T08:35:45.188Z,99.90
2018-09-20T08:38:13.450Z,99.90
2018-09-20T08:40:41.718Z,99.90
2018-09-20T08:43:09.963Z,99.90
2018-09-20T08:45:38.192Z,99.90
2018-09-20T08:48:06.468Z,99.90
2018-09-20T08:50:34.740Z,99.90
2018-09-20T08:53:02.995Z,99.90
2018-09-20T08:55:31.281Z,99.90
2018-09-20T08:57:59.564Z,99.90
2018-09-20T09:00:27.983Z,99.90
2018-09-20T09:02:56.248Z,99.90
2018-09-20T09:05:24.701Z,99.90
2018-09-20T09:07:52.975Z,99.90
2018-09-20T09:10:21.245Z,99.90
2018-09-20T09:12:49.533Z,99.90
2018-09-20T09:15:17.818Z,99.90
2018-09-20T09:17:46.088Z,99.90
2018-09-20T09:20:14.386Z,99.90
2018-09-20T09:22:42.665Z,99.90
2018-09-20T09:25:10.907Z,99.90
2018-09-20T09:27:39.158Z,99.90
2018-09-20T09:30:07.474Z,99.90
2018-09-20T09:32:35.750Z,99.90
2018-09-20T09:35:04.032Z,99.90
2018-09-20T09:37:32.287Z,99.90
2018-09-20T09:40:00.575Z,99.90
2018-09-20T09:42:28.897Z,99.90
2018-09-20T09:44:57.213Z,99.90
2018-09-20T09:47:25.482Z,99.90
2018-09-20T09:49:53.772Z,99.90
2018-09-20T09:52:22.053Z,99.90
2018-09-20T09:54:50.380Z,99.90
2018-09-20T09:57:18.650Z,99.90
2018-09-20T09:59:47.749Z,99.90
2018-09-20T10:02:15.988Z,99.70
2018-09-20T10:04:44.244Z,99.50
2018-09-20T10:07:12.529Z,99.10
2018-09-20T10:09:40.793Z,99.20
2018-09-20T10:12:09.057Z,98.80
2018-09-20T10:14:37.365Z,98.00
2018-09-20T10:17:05.827Z,97.90
2018-09-20T10:19:34.084Z,97.50
2018-09-20T10:22:02.397Z,97.30
2018-09-20T10:38:06.625Z,97.20
2018-09-20T10:40:34.865Z,97.40
2018-09-20T10:43:03.140Z,96.80
2018-09-20T10:45:31.468Z,97.10
2018-09-20T10:47:59.722Z,96.90
2018-09-20T10:50:27.973Z,97.20
2018-09-20T10:52:56.206Z,96.00
2018-09-20T10:55:24.461Z,96.20
2018-09-20T10:57:52.702Z,95.60
2018-09-20T11:00:20.959Z,95.40
2018-09-20T11:02:49.309Z,95.10
2018-09-20T11:05:17.540Z,95.00
2018-09-20T11:07:45.842Z,94.50
2018-09-20T11:10:14.165Z,94.80
2018-09-20T11:12:42.410Z,95.10
2018-09-20T11:15:10.696Z,94.40
2018-09-20T11:17:38.954Z,94.00
2018-09-20T11:20:07.283Z,93.70
2018-09-20T11:22:35.539Z,93.50
2018-09-20T11:25:03.826Z,92.80
2018-09-20T11:27:32.104Z,93.10
2018-09-20T11:30:00.423Z,92.90
2018-09-20T11:32:28.727Z,93.20
2018-09-20T11:34:56.983Z,92.50
2018-09-20T11:37:25.232Z,92.30
2018-09-20T11:39:53.487Z,92.30
2018-09-20T11:42:21.746Z,92.40
2018-09-20T11:44:49.982Z,92.40
2018-09-20T11:47:18.229Z,92.50
2018-09-20T11:49:46.505Z,93.20
2018-09-20T11:52:14.858Z,92.50
2018-09-20T11:54:43.177Z,92.20
2018-09-20T11:57:11.464Z,92.30
2018-09-20T11:59:39.743Z,91.90
2018-09-20T12:02:08.044Z,90.90
2018-09-20T12:04:36.310Z,90.90
2018-09-20T12:07:04.746Z,91.10
2018-09-20T12:09:33.559Z,90.90
2018-09-20T12:12:01.868Z,91.20
2018-09-20T12:14:30.195Z,91.20
2018-09-20T12:16:58.547Z,91.10
2018-09-20T12:19:26.850Z,90.60
2018-09-20T12:21:55.689Z,90.90
2018-09-20T12:24:24.694Z,90.80
2018-09-20T12:26:53.027Z,90.30
2018-09-20T12:29:21.391Z,89.30
2018-09-20T12:31:49.760Z,88.20
2018-09-20T12:34:17.977Z,87.30
2018-09-20T12:36:46.277Z,86.40
2018-09-20T12:39:15.052Z,85.90
2018-09-20T12:41:43.363Z,87.20
2018-09-20T12:44:11.802Z,86.20
2018-09-20T12:46:40.051Z,86.20
2018-09-20T12:49:08.353Z,85.60
2018-09-20T12:51:36.636Z,85.70
2018-09-20T12:54:04.914Z,86.10
2018-09-20T12:56:33.255Z,85.20
2018-09-20T12:59:01.572Z,83.80
2018-09-20T13:01:30.001Z,84.40
2018-09-20T13:03:58.244Z,83.90
2018-09-20T13:06:26.495Z,81.90
2018-09-20T13:08:54.756Z,81.00
2018-09-20T13:11:23.070Z,80.40
2018-09-20T13:13:51.360Z,79.90
2018-09-20T13:16:19.599Z,78.80
2018-09-20T13:18:47.845Z,77.50
2018-09-20T13:21:16.154Z,77.50
2018-09-20T13:23:44.448Z,76.70
2018-09-20T13:26:12.724Z,75.80
2018-09-20T13:28:40.977Z,76.40
2018-09-20T13:31:09.246Z,76.10
2018-09-20T13:33:37.524Z,75.80
2018-09-20T13:36:06.272Z,75.50
2018-09-20T13:38:34.540Z,75.70
2018-09-20T13:41:02.916Z,74.90
2018-09-20T13:43:31.202Z,74.30
2018-09-20T13:45:59.443Z,74.90
2018-09-20T13:48:27.736Z,74.50
2018-09-20T13:50:56.003Z,74.20
2018-09-20T13:53:24.283Z,72.20
2018-09-20T13:55:52.532Z,72.70
2018-09-20T13:58:20.805Z,71.90
2018-09-20T14:00:49.110Z,69.10
2018-09-20T14:03:17.476Z,69.40
2018-09-20T14:05:45.783Z,69.30
2018-09-20T14:08:14.020Z,69.80
2018-09-20T14:10:42.283Z,69.20
2018-09-20T14:13:10.581Z,69.20
2018-09-20T14:15:38.894Z,68.50
2018-09-20T14:18:07.205Z,68.30
2018-09-20T14:20:35.448Z,67.90
2018-09-20T14:23:03.870Z,67.10
2018-09-20T14:25:32.221Z,66.30
2018-09-20T14:28:00.526Z,67.30
2018-09-20T14:30:28.936Z,68.80
2018-09-20T14:32:57.312Z,69.80
2018-09-20T14:35:25.746Z,67.30
2018-09-20T14:37:54.130Z,65.60
2018-09-20T14:40:22.544Z,66.60
2018-09-20T14:42:50.800Z,65.90
2018-09-20T14:45:19.105Z,65.80
2018-09-20T14:47:47.375Z,66.00
2018-09-20T14:50:15.661Z,64.60
2018-09-20T14:52:43.962Z,63.60
2018-09-20T14:55:12.314Z,63.00
2018-09-20T14:57:40.560Z,63.60
2018-09-20T15:00:09.013Z,63.40
2018-09-20T15:02:37.631Z,64.20
2018-09-20T15:05:06.356Z,63.30
2018-09-20T15:07:34.872Z,63.10
2018-09-20T15:12:45.104Z,63.00
2018-09-20T15:15:13.656Z,63.30
2018-09-20T15:17:42.083Z,62.70
2018-09-20T15:20:10.425Z,63.70
2018-09-20T15:22:38.691Z,63.90
2018-09-20T15:25:07.117Z,63.30
2018-09-20T15:27:35.370Z,63.00
2018-09-20T15:30:03.742Z,62.90
2018-09-20T15:32:32.064Z,61.30
2018-09-20T15:35:00.302Z,61.80
2018-09-20T15:37:28.649Z,62.00
2018-09-20T15:39:57.077Z,61.00
2018-09-20T15:42:25.383Z,59.20
2018-09-20T15:44:53.854Z,58.90
2018-09-20T15:47:22.139Z,58.60
2018-09-20T15:49:50.391Z,59.00
2018-09-20T15:52:18.749Z,58.50
2018-09-20T15:54:47.028Z,58.10
2018-09-20T15:57:15.343Z,57.70
2018-09-20T15:59:43.677Z,57.40
2018-09-20T16:02:12.240Z,57.30
2018-09-20T16:04:40.532Z,57.70
2018-09-20T16:07:09.055Z,57.20
2018-09-20T16:09:37.410Z,57.90
2018-09-20T16:12:05.651Z,57.30
2018-09-20T16:14:33.951Z,57.30
2018-09-20T16:17:02.196Z,57.20
2018-09-20T16:19:30.520Z,57.80
2018-09-20T16:21:58.924Z,58.30
2018-09-20T16:24:27.216Z,58.30
2018-09-20T16:26:55.613Z,58.70
2018-09-20T16:29:36.504Z,59.30
2018-09-20T16:32:22.704Z,59.60
2018-09-20T16:35:06.263Z,60.50
2018-09-20T16:37:50.636Z,61.60
2018-09-20T16:40:21.019Z,63.40
2018-09-20T16:42:50.832Z,65.30
2018-09-20T16:45:19.132Z,66.40
2018-09-20T16:47:47.479Z,66.80
2018-09-20T16:50:15.818Z,67.10
2018-09-20T16:52:44.134Z,67.70
2018-09-20T16:55:12.391Z,67.70
2018-09-20T16:57:40.837Z,67.50
2018-09-20T17:00:11.021Z,67.70
2018-09-20T17:02:39.916Z,67.90
2018-09-20T17:05:07.911Z,67.90
2018-09-20T17:07:36.150Z,67.90
2018-09-20T17:10:04.506Z,67.60
2018-09-20T17:12:32.884Z,67.70
2018-09-20T17:15:01.896Z,68.10
2018-09-20T17:17:30.495Z,67.70
2018-09-20T17:19:59.768Z,67.30
2018-09-20T17:22:28.688Z,68.10
2018-09-20T17:24:56.950Z,68.40
2018-09-20T17:27:25.856Z,68.50
2018-09-20T17:29:54.184Z,68.90
2018-09-20T17:32:22.676Z,69.40
2018-09-20T17:34:52.075Z,69.50
2018-09-20T17:37:28.321Z,69.90
2018-09-20T17:39:59.972Z,69.70
2018-09-20T17:42:33.079Z,70.20
2018-09-20T17:45:02.799Z,70.10
2018-09-20T17:47:35.092Z,70.10
2018-09-20T17:50:03.547Z,69.90
2018-09-20T17:52:32.179Z,70.00
2018-09-20T17:55:01.110Z,70.50
2018-09-20T17:57:29.948Z,70.50
2018-09-20T17:59:58.310Z,70.50
2018-09-20T18:02:26.623Z,70.50
2018-09-20T18:04:56.802Z,70.60
2018-09-20T18:07:30.244Z,70.70
2018-09-20T18:09:59.755Z,71.00
2018-09-20T18:12:28.094Z,70.90
2018-09-20T18:14:56.413Z,71.20
2018-09-20T18:17:24.794Z,71.10
2018-09-20T18:19:53.112Z,71.10
2018-09-20T18:22:21.508Z,71.30
2018-09-20T18:24:49.796Z,71.70
2018-09-20T18:27:18.099Z,71.80
2018-09-20T18:29:46.434Z,72.30
2018-09-20T18:32:14.705Z,72.10
2018-09-20T18:34:42.984Z,72.50
2018-09-20T18:37:11.303Z,72.50
2018-09-20T18:39:39.643Z,72.40
2018-09-20T18:42:07.919Z,72.70
2018-09-20T18:44:43.220Z,73.70
2018-09-20T18:47:11.552Z,73.10
2018-09-20T18:49:39.943Z,73.40
2018-09-20T18:52:08.530Z,73.50
2018-09-20T18:54:36.919Z,73.60
2018-09-20T18:57:05.458Z,74.10
2018-09-20T18:59:35.030Z,74.20
2018-09-20T19:02:03.576Z,74.70
2018-09-20T19:04:32.079Z,75.00
2018-09-20T19:07:00.543Z,75.30
2018-09-20T19:09:28.978Z,75.70
2018-09-20T19:11:57.540Z,76.10
2018-09-20T19:14:25.890Z,76.20
2018-09-20T19:16:54.172Z,76.40
2018-09-20T19:19:22.580Z,76.60
2018-09-20T19:21:51.086Z,76.70
2018-09-20T19:24:19.767Z,76.80
2018-09-20T19:26:48.148Z,77.00
2018-09-20T19:29:17.624Z,77.20
2018-09-20T19:31:46.123Z,77.40
2018-09-20T19:34:15.096Z,77.30
2018-09-20T19:36:43.703Z,77.60
2018-09-20T19:39:12.907Z,78.00
2018-09-20T19:41:41.455Z,78.10
2018-09-20T19:44:09.850Z,78.50
2018-09-20T19:46:38.868Z,78.70
2018-09-20T19:49:07.900Z,79.10
2018-09-20T19:51:37.479Z,79.50
2018-09-20T19:54:05.960Z,79.90
2018-09-20T19:56:34.754Z,80.00
2018-09-20T19:59:03.278Z,80.40
2018-09-20T20:01:31.792Z,80.40
2018-09-20T20:04:00.262Z,80.50
2018-09-20T20:06:28.983Z,80.80
2018-09-20T20:08:57.574Z,81.00
2018-09-20T20:11:26.008Z,80.90
2018-09-20T20:13:55.093Z,81.10
2018-09-20T20:16:27.880Z,81.00
2018-09-20T20:18:56.596Z,81.40
2018-09-20T20:21:25.394Z,82.00
2018-09-20T20:23:53.969Z,82.20
2018-09-20T20:26:22.568Z,82.40
2018-09-20T20:28:51.201Z,82.50
2018-09-20T20:31:19.722Z,82.70
2018-09-20T20:33:48.391Z,83.10
2018-09-20T20:36:16.991Z,83.40
2018-09-20T20:38:45.815Z,83.60
2018-09-20T20:41:15.037Z,84.20
2018-09-20T20:43:44.000Z,84.20
2018-09-20T20:46:12.556Z,84.70
2018-09-20T20:48:41.019Z,84.90
2018-09-20T20:51:09.754Z,85.30
2018-09-20T20:53:38.989Z,85.70
2018-09-20T20:56:07.384Z,85.90
2018-09-20T20:58:36.212Z,86.40
2018-09-20T21:01:04.663Z,87.00
2018-09-20T21:03:33.312Z,87.70
2018-09-20T21:06:01.932Z,87.60
2018-09-20T21:08:30.464Z,88.20
2018-09-20T21:10:59.076Z,88.50
2018-09-20T21:13:27.823Z,88.90
2018-09-20T21:15:56.337Z,89.50
2018-09-20T21:18:24.895Z,90.00
2018-09-20T21:20:53.199Z,89.90
2018-09-20T21:23:21.482Z,90.10
2018-09-20T21:25:49.820Z,90.40
2018-09-20T21:28:18.062Z,90.40
2018-09-20T21:30:46.409Z,90.60
2018-09-20T21:33:14.671Z,90.60
2018-09-20T21:35:43.060Z,90.80
2018-09-20T21:38:11.428Z,90.90
2018-09-20T21:40:39.696Z,90.90
2018-09-20T21:43:08.327Z,91.10
2018-09-20T21:45:36.590Z,91.20
2018-09-20T21:48:04.901Z,91.30
2018-09-20T21:50:33.143Z,91.50
2018-09-20T21:53:01.492Z,91.60
2018-09-20T21:55:29.855Z,91.70
2018-09-20T21:57:58.152Z,91.90
2018-09-20T22:00:26.521Z,92.10
2018-09-20T22:03:00.111Z,92.20
2018-09-20T22:05:28.392Z,92.40
2018-09-20T22:07:56.717Z,92.50
2018-09-20T22:10:25.039Z,92.50
2018-09-20T22:12:53.341Z,92.60
2018-09-20T22:15:25.590Z,92.50
2018-09-20T22:17:54.526Z,92.70
2018-09-20T22:20:23.892Z,92.80
2018-09-20T22:22:52.266Z,92.90
2018-09-20T22:25:20.528Z,93.00
2018-09-20T22:27:48.972Z,93.10
2018-09-20T22:30:17.404Z,93.30
2018-09-20T22:32:45.922Z,93.30
2018-09-20T22:35:14.188Z,93.40
2018-09-20T22:37:42.697Z,93.70
2018-09-20T22:40:10.975Z,93.90
2018-09-20T22:42:39.301Z,93.90
2018-09-20T22:45:07.628Z,94.10
2018-09-20T22:47:35.915Z,94.50
2018-09-20T22:50:04.187Z,94.70
2018-09-20T22:52:32.437Z,95.00
2018-09-20T22:55:00.722Z,95.10
2018-09-20T22:57:29.065Z,95.20
2018-09-20T22:59:57.346Z,95.30
2018-09-20T23:02:25.643Z,95.40
2018-09-20T23:04:53.943Z,95.40
2018-09-20T23:07:22.403Z,95.60
2018-09-20T23:09:50.712Z,95.70
2018-09-20T23:12:19.016Z,95.80
2018-09-20T23:14:47.247Z,95.90
2018-09-20T23:17:15.491Z,96.10
2018-09-20T23:19:43.814Z,96.40
2018-09-20T23:22:12.073Z,96.50
2018-09-20T23:24:40.343Z,96.60
2018-09-20T23:27:08.619Z,96.50
2018-09-20T23:29:36.904Z,96.70
2018-09-20T23:32:05.261Z,96.80
2018-09-20T23:34:33.511Z,96.90
2018-09-20T23:37:01.797Z,97.20
2018-09-20T23:39:30.051Z,97.30
2018-09-20T23:41:58.333Z,97.60
2018-09-20T23:44:26.599Z,97.80
2018-09-20T23:46:54.927Z,98.10
2018-09-20T23:49:23.203Z,98.40
2018-09-20T23:51:51.518Z,98.40
2018-09-20T23:54:19.783Z,98.90
2018-09-20T23:56:48.075Z,99.40
2018-09-20T23:59:16.382Z,99.90
